sensor_id;sensor_type;location;lat;lon;timestamp;temperature;humidity
569;DHT22;269;48.884;9.192;2022-12-29T00:00:07;9.70;99.90
569;DHT22;269;48.884;9.192;2022-12-29T00:02:34;9.70;99.90
569;DHT22;269;48.884;9.192;2022-12-29T00:05:01;9.70;99.90
569;DHT22;269;48.884;9.192;2022-12-29T00:07:28;9.70;99.90
569;DHT22;269;48.884;9.192;2022-12-29T00:09:55;9.70;99.90
569;DHT22;269;48.884;9.192;2022-12-29T00:12:22;9.80;99.90
569;DHT22;269;48.884;9.192;2022-12-29T00:14:50;9.80;99.90
569;DHT22;269;48.884;9.192;2022-12-29T00:17:35;9.80;99.90
569;DHT22;269;48.884;9.192;2022-12-29T00:20:02;9.80;99.90
569;DHT22;269;48.884;9.192;2022-12-29T00:22:47;9.90;99.90
569;DHT22;269;48.884;9.192;2022-12-29T00:25:46;9.90;99.90
569;DHT22;269;48.884;9.192;2022-12-29T00:28:31;9.90;99.90
569;DHT22;269;48.884;9.192;2022-12-29T00:31:16;9.90;99.90
569;DHT22;269;48.884;9.192;2022-12-29T00:34:01;9.90;99.90
569;DHT22;269;48.884;9.192;2022-12-29T00:36:46;10.00;99.90
569;DHT22;269;48.884;9.192;2022-12-29T00:39:15;10.00;99.90
569;DHT22;269;48.884;9.192;2022-12-29T00:42:03;10.00;99.90
569;DHT22;269;48.884;9.192;2022-12-29T00:44:48;10.00;99.90
569;DHT22;269;48.884;9.192;2022-12-29T00:47:16;10.10;99.90
569;DHT22;269;48.884;9.192;2022-12-29T00:49:43;10.10;99.90
569;DHT22;269;48.884;9.192;2022-12-29T00:52:11;10.10;99.90
569;DHT22;269;48.884;9.192;2022-12-29T00:54:39;10.10;99.90
569;DHT22;269;48.884;9.192;2022-12-29T00:57:08;10.20;99.90
569;DHT22;269;48.884;9.192;2022-12-29T00:59:36;10.20;99.90
569;DHT22;269;48.884;9.192;2022-12-29T01:02:03;10.20;99.90
569;DHT22;269;48.884;9.192;2022-12-29T01:04:32;10.20;99.90
569;DHT22;269;48.884;9.192;2022-12-29T01:06:59;10.20;99.90
569;DHT22;269;48.884;9.192;2022-12-29T01:09:26;10.20;99.90
569;DHT22;269;48.884;9.192;2022-12-29T01:12:11;10.20;99.90
569;DHT22;269;48.884;9.192;2022-12-29T01:14:38;10.20;99.90
569;DHT22;269;48.884;9.192;2022-12-29T01:17:05;10.20;99.90
569;DHT22;269;48.884;9.192;2022-12-29T01:19:34;10.20;99.90
569;DHT22;269;48.884;9.192;2022-12-29T01:22:01;10.20;99.90
569;DHT22;269;48.884;9.192;2022-12-29T01:24:28;10.30;99.90
569;DHT22;269;48.884;9.192;2022-12-29T01:26:55;10.30;99.90
569;DHT22;269;48.884;9.192;2022-12-29T01:29:22;10.30;99.90
569;DHT22;269;48.884;9.192;2022-12-29T01:31:49;10.30;99.90
569;DHT22;269;48.884;9.192;2022-12-29T01:34:16;10.30;99.90
569;DHT22;269;48.884;9.192;2022-12-29T01:36:45;10.30;99.90
569;DHT22;269;48.884;9.192;2022-12-29T01:39:12;10.40;99.90
569;DHT22;269;48.884;9.192;2022-12-29T01:41:39;10.40;99.90
569;DHT22;269;48.884;9.192;2022-12-29T01:47:08;10.30;99.90
569;DHT22;269;48.884;9.192;2022-12-29T01:49:35;10.30;99.90
569;DHT22;269;48.884;9.192;2022-12-29T01:52:06;10.40;99.90
569;DHT22;269;48.884;9.192;2022-12-29T01:54:36;10.40;99.90
569;DHT22;269;48.884;9.192;2022-12-29T01:57:08;10.40;99.90
569;DHT22;269;48.884;9.192;2022-12-29T01:59:39;10.40;99.90
569;DHT22;269;48.884;9.192;2022-12-29T02:02:09;10.40;99.90
569;DHT22;269;48.884;9.192;2022-12-29T02:04:39;10.40;99.90
569;DHT22;269;48.884;9.192;2022-12-29T02:07:19;10.40;99.90
569;DHT22;269;48.884;9.192;2022-12-29T02:09:47;10.30;99.90
569;DHT22;269;48.884;9.192;2022-12-29T02:12:16;10.30;99.90
569;DHT22;269;48.884;9.192;2022-12-29T02:14:43;10.30;99.90
569;DHT22;269;48.884;9.192;2022-12-29T02:17:19;10.30;99.90
569;DHT22;269;48.884;9.192;2022-12-29T02:23:36;10.30;99.90
569;DHT22;269;48.884;9.192;2022-12-29T02:29:33;10.20;99.90
569;DHT22;269;48.884;9.192;2022-12-29T02:32:12;10.20;99.90
569;DHT22;269;48.884;9.192;2022-12-29T02:34:49;10.20;99.90
569;DHT22;269;48.884;9.192;2022-12-29T02:37:24;10.10;99.90
569;DHT22;269;48.884;9.192;2022-12-29T02:39:59;10.10;99.90
569;DHT22;269;48.884;9.192;2022-12-29T02:42:34;10.10;99.90
569;DHT22;269;48.884;9.192;2022-12-29T02:45:04;10.20;99.90
569;DHT22;269;48.884;9.192;2022-12-29T02:47:37;10.20;99.90
569;DHT22;269;48.884;9.192;2022-12-29T02:50:11;10.20;99.90
569;DHT22;269;48.884;9.192;2022-12-29T02:52:45;10.20;99.90
569;DHT22;269;48.884;9.192;2022-12-29T02:55:13;10.20;99.90
569;DHT22;269;48.884;9.192;2022-12-29T02:57:39;10.20;99.90
569;DHT22;269;48.884;9.192;2022-12-29T03:00:09;10.20;99.90
569;DHT22;269;48.884;9.192;2022-12-29T03:02:57;10.20;99.90
569;DHT22;269;48.884;9.192;2022-12-29T03:05:45;10.20;99.90
569;DHT22;269;48.884;9.192;2022-12-29T03:08:23;10.20;99.90
569;DHT22;269;48.884;9.192;2022-12-29T03:10:59;10.20;99.90
569;DHT22;269;48.884;9.192;2022-12-29T03:13:30;10.20;99.90
569;DHT22;269;48.884;9.192;2022-12-29T03:16:21;10.20;99.90
569;DHT22;269;48.884;9.192;2022-12-29T03:19:02;10.50;99.90
569;DHT22;269;48.884;9.192;2022-12-29T03:21:34;10.20;99.90
569;DHT22;269;48.884;9.192;2022-12-29T03:24:24;10.20;99.90
569;DHT22;269;48.884;9.192;2022-12-29T03:26:53;10.20;99.90
569;DHT22;269;48.884;9.192;2022-12-29T03:29:21;10.20;99.90
569;DHT22;269;48.884;9.192;2022-12-29T03:31:49;10.20;99.90
569;DHT22;269;48.884;9.192;2022-12-29T03:34:21;10.20;99.90
569;DHT22;269;48.884;9.192;2022-12-29T03:36:53;10.20;99.90
569;DHT22;269;48.884;9.192;2022-12-29T03:39:22;10.30;99.90
569;DHT22;269;48.884;9.192;2022-12-29T03:41:54;10.30;99.90
569;DHT22;269;48.884;9.192;2022-12-29T03:44:31;10.30;99.90
569;DHT22;269;48.884;9.192;2022-12-29T03:46:59;10.40;99.90
569;DHT22;269;48.884;9.192;2022-12-29T03:49:27;10.40;99.90
569;DHT22;269;48.884;9.192;2022-12-29T03:51:54;10.50;99.90
569;DHT22;269;48.884;9.192;2022-12-29T03:54:21;10.50;99.90
569;DHT22;269;48.884;9.192;2022-12-29T03:56:48;10.50;99.90
569;DHT22;269;48.884;9.192;2022-12-29T03:59:15;10.50;99.90
569;DHT22;269;48.884;9.192;2022-12-29T04:01:42;10.60;99.90
569;DHT22;269;48.884;9.192;2022-12-29T04:04:09;10.60;99.90
569;DHT22;269;48.884;9.192;2022-12-29T04:06:38;10.70;99.90
569;DHT22;269;48.884;9.192;2022-12-29T04:09:05;10.70;99.90
569;DHT22;269;48.884;9.192;2022-12-29T04:11:32;10.80;99.90
569;DHT22;269;48.884;9.192;2022-12-29T04:13:59;10.80;99.90
569;DHT22;269;48.884;9.192;2022-12-29T04:16:26;10.80;99.90
569;DHT22;269;48.884;9.192;2022-12-29T04:18:53;10.80;99.90
569;DHT22;269;48.884;9.192;2022-12-29T04:21:20;10.90;99.90
569;DHT22;269;48.884;9.192;2022-12-29T04:23:48;10.90;99.90
569;DHT22;269;48.884;9.192;2022-12-29T04:26:15;11.00;99.90
569;DHT22;269;48.884;9.192;2022-12-29T04:28:42;11.10;99.90
569;DHT22;269;48.884;9.192;2022-12-29T04:31:09;11.20;99.90
569;DHT22;269;48.884;9.192;2022-12-29T04:33:37;11.20;99.90
569;DHT22;269;48.884;9.192;2022-12-29T04:36:04;11.20;99.90
569;DHT22;269;48.884;9.192;2022-12-29T04:38:31;11.20;99.90
569;DHT22;269;48.884;9.192;2022-12-29T04:41:01;11.20;99.90
569;DHT22;269;48.884;9.192;2022-12-29T04:43:28;11.10;99.90
569;DHT22;269;48.884;9.192;2022-12-29T04:45:56;11.00;99.90
569;DHT22;269;48.884;9.192;2022-12-29T04:48:23;10.80;99.90
569;DHT22;269;48.884;9.192;2022-12-29T04:50:50;10.80;99.90
569;DHT22;269;48.884;9.192;2022-12-29T04:53:17;10.70;99.90
569;DHT22;269;48.884;9.192;2022-12-29T04:55:47;10.70;99.90
569;DHT22;269;48.884;9.192;2022-12-29T04:58:15;10.70;99.90
569;DHT22;269;48.884;9.192;2022-12-29T05:00:43;10.70;99.90
569;DHT22;269;48.884;9.192;2022-12-29T05:03:10;10.80;99.90
569;DHT22;269;48.884;9.192;2022-12-29T05:05:37;10.80;99.90
569;DHT22;269;48.884;9.192;2022-12-29T05:08:04;10.90;99.90
569;DHT22;269;48.884;9.192;2022-12-29T05:10:31;11.00;99.90
569;DHT22;269;48.884;9.192;2022-12-29T05:12:58;11.00;99.90
569;DHT22;269;48.884;9.192;2022-12-29T05:15:27;11.00;99.90
569;DHT22;269;48.884;9.192;2022-12-29T05:17:54;11.10;99.90
569;DHT22;269;48.884;9.192;2022-12-29T05:20:20;11.20;99.90
569;DHT22;269;48.884;9.192;2022-12-29T05:22:48;11.20;99.90
569;DHT22;269;48.884;9.192;2022-12-29T05:25:15;11.20;99.90
569;DHT22;269;48.884;9.192;2022-12-29T05:27:41;11.30;99.90
569;DHT22;269;48.884;9.192;2022-12-29T05:30:10;11.30;99.90
569;DHT22;269;48.884;9.192;2022-12-29T05:32:38;11.40;99.90
569;DHT22;269;48.884;9.192;2022-12-29T05:35:06;11.50;99.90
569;DHT22;269;48.884;9.192;2022-12-29T05:37:33;11.50;99.90
569;DHT22;269;48.884;9.192;2022-12-29T05:40:00;11.60;99.90
569;DHT22;269;48.884;9.192;2022-12-29T05:42:27;11.70;99.90
569;DHT22;269;48.884;9.192;2022-12-29T05:44:54;11.70;99.90
569;DHT22;269;48.884;9.192;2022-12-29T05:47:21;11.70;99.90
569;DHT22;269;48.884;9.192;2022-12-29T05:49:50;11.80;99.90
569;DHT22;269;48.884;9.192;2022-12-29T05:52:17;11.90;99.90
569;DHT22;269;48.884;9.192;2022-12-29T05:54:44;11.90;99.90
569;DHT22;269;48.884;9.192;2022-12-29T05:57:11;12.00;99.90
569;DHT22;269;48.884;9.192;2022-12-29T05:59:38;12.00;99.90
569;DHT22;269;48.884;9.192;2022-12-29T06:02:05;12.00;99.90
569;DHT22;269;48.884;9.192;2022-12-29T06:04:32;12.00;99.90
569;DHT22;269;48.884;9.192;2022-12-29T06:07:00;12.10;99.90
569;DHT22;269;48.884;9.192;2022-12-29T06:09:27;12.00;99.90
569;DHT22;269;48.884;9.192;2022-12-29T06:11:54;12.00;99.90
569;DHT22;269;48.884;9.192;2022-12-29T06:14:21;12.00;99.90
569;DHT22;269;48.884;9.192;2022-12-29T06:16:48;12.10;99.90
569;DHT22;269;48.884;9.192;2022-12-29T06:19:15;12.00;99.90
569;DHT22;269;48.884;9.192;2022-12-29T06:21:42;12.00;99.90
569;DHT22;269;48.884;9.192;2022-12-29T06:24:11;12.00;99.90
569;DHT22;269;48.884;9.192;2022-12-29T06:26:37;12.00;99.90
569;DHT22;269;48.884;9.192;2022-12-29T06:29:06;12.00;99.90
569;DHT22;269;48.884;9.192;2022-12-29T06:31:33;12.00;99.90
569;DHT22;269;48.884;9.192;2022-12-29T06:34:01;12.00;99.90
569;DHT22;269;48.884;9.192;2022-12-29T06:36:28;12.10;99.90
569;DHT22;269;48.884;9.192;2022-12-29T06:38:55;12.10;99.90
569;DHT22;269;48.884;9.192;2022-12-29T06:41:24;12.10;99.90
569;DHT22;269;48.884;9.192;2022-12-29T06:43:51;12.10;99.90
569;DHT22;269;48.884;9.192;2022-12-29T06:46:18;12.00;99.90
569;DHT22;269;48.884;9.192;2022-12-29T06:48:45;12.00;99.90
569;DHT22;269;48.884;9.192;2022-12-29T06:51:12;12.00;99.90
569;DHT22;269;48.884;9.192;2022-12-29T06:53:39;12.10;99.90
569;DHT22;269;48.884;9.192;2022-12-29T06:56:06;12.10;99.90
569;DHT22;269;48.884;9.192;2022-12-29T06:58:35;12.10;99.90
569;DHT22;269;48.884;9.192;2022-12-29T07:01:03;12.10;99.90
569;DHT22;269;48.884;9.192;2022-12-29T07:03:30;12.10;99.90
569;DHT22;269;48.884;9.192;2022-12-29T07:05:57;12.20;99.90
569;DHT22;269;48.884;9.192;2022-12-29T07:08:24;12.00;99.90
569;DHT22;269;48.884;9.192;2022-12-29T07:10:51;12.00;99.90
569;DHT22;269;48.884;9.192;2022-12-29T07:13:18;12.00;99.90
569;DHT22;269;48.884;9.192;2022-12-29T07:15:46;11.90;99.90
569;DHT22;269;48.884;9.192;2022-12-29T07:18:13;12.00;99.90
569;DHT22;269;48.884;9.192;2022-12-29T07:20:41;11.90;99.90
569;DHT22;269;48.884;9.192;2022-12-29T07:23:08;11.80;99.90
569;DHT22;269;48.884;9.192;2022-12-29T07:25:34;11.80;99.90
569;DHT22;269;48.884;9.192;2022-12-29T07:28:02;11.80;99.90
569;DHT22;269;48.884;9.192;2022-12-29T07:30:29;11.80;99.90
569;DHT22;269;48.884;9.192;2022-12-29T07:32:58;11.70;99.90
569;DHT22;269;48.884;9.192;2022-12-29T07:35:25;11.70;99.90
569;DHT22;269;48.884;9.192;2022-12-29T07:37:52;11.70;99.90
569;DHT22;269;48.884;9.192;2022-12-29T07:40:19;11.70;99.90
569;DHT22;269;48.884;9.192;2022-12-29T07:42:46;11.70;99.90
569;DHT22;269;48.884;9.192;2022-12-29T07:45:13;11.70;99.90
569;DHT22;269;48.884;9.192;2022-12-29T07:47:40;11.60;99.90
569;DHT22;269;48.884;9.192;2022-12-29T07:50:08;11.60;99.90
569;DHT22;269;48.884;9.192;2022-12-29T07:52:35;11.60;99.90
569;DHT22;269;48.884;9.192;2022-12-29T07:55:02;11.50;99.90
569;DHT22;269;48.884;9.192;2022-12-29T07:57:30;11.50;99.90
569;DHT22;269;48.884;9.192;2022-12-29T07:59:56;11.50;99.90
569;DHT22;269;48.884;9.192;2022-12-29T08:02:24;11.40;99.90
569;DHT22;269;48.884;9.192;2022-12-29T08:04:52;11.40;99.90
569;DHT22;269;48.884;9.192;2022-12-29T08:07:20;11.40;99.90
569;DHT22;269;48.884;9.192;2022-12-29T08:09:47;11.40;99.90
569;DHT22;269;48.884;9.192;2022-12-29T08:12:14;11.40;99.90
569;DHT22;269;48.884;9.192;2022-12-29T08:14:42;11.40;99.90
569;DHT22;269;48.884;9.192;2022-12-29T08:17:09;11.40;99.90
569;DHT22;269;48.884;9.192;2022-12-29T08:19:36;11.50;99.90
569;DHT22;269;48.884;9.192;2022-12-29T08:22:03;11.50;99.90
569;DHT22;269;48.884;9.192;2022-12-29T08:24:31;11.50;99.90
569;DHT22;269;48.884;9.192;2022-12-29T08:26:58;11.50;99.90
569;DHT22;269;48.884;9.192;2022-12-29T08:29:25;11.50;99.90
569;DHT22;269;48.884;9.192;2022-12-29T08:31:52;11.40;99.90
569;DHT22;269;48.884;9.192;2022-12-29T08:34:19;11.40;99.90
569;DHT22;269;48.884;9.192;2022-12-29T08:36:46;11.40;99.90
569;DHT22;269;48.884;9.192;2022-12-29T08:39:13;11.40;99.90
569;DHT22;269;48.884;9.192;2022-12-29T08:41:42;11.40;99.90
569;DHT22;269;48.884;9.192;2022-12-29T08:44:09;11.50;99.90
569;DHT22;269;48.884;9.192;2022-12-29T08:46:36;11.40;99.90
569;DHT22;269;48.884;9.192;2022-12-29T08:49:03;11.40;99.90
569;DHT22;269;48.884;9.192;2022-12-29T08:51:30;11.40;99.90
569;DHT22;269;48.884;9.192;2022-12-29T08:53:58;11.40;99.90
569;DHT22;269;48.884;9.192;2022-12-29T08:56:26;11.50;99.90
569;DHT22;269;48.884;9.192;2022-12-29T08:58:54;11.50;99.90
569;DHT22;269;48.884;9.192;2022-12-29T09:01:21;11.40;99.90
569;DHT22;269;48.884;9.192;2022-12-29T09:03:49;11.50;99.90
569;DHT22;269;48.884;9.192;2022-12-29T09:06:17;11.50;99.90
569;DHT22;269;48.884;9.192;2022-12-29T09:08:44;11.80;99.90
569;DHT22;269;48.884;9.192;2022-12-29T09:11:14;11.50;99.90
569;DHT22;269;48.884;9.192;2022-12-29T09:13:41;11.50;99.90
569;DHT22;269;48.884;9.192;2022-12-29T09:16:09;11.60;99.90
569;DHT22;269;48.884;9.192;2022-12-29T09:18:37;11.60;99.90
569;DHT22;269;48.884;9.192;2022-12-29T09:21:06;11.60;99.90
569;DHT22;269;48.884;9.192;2022-12-29T09:23:34;11.70;99.90
569;DHT22;269;48.884;9.192;2022-12-29T09:26:01;11.70;99.90
569;DHT22;269;48.884;9.192;2022-12-29T09:28:28;11.80;99.90
569;DHT22;269;48.884;9.192;2022-12-29T09:30:56;11.80;99.90
569;DHT22;269;48.884;9.192;2022-12-29T09:33:25;11.80;99.90
569;DHT22;269;48.884;9.192;2022-12-29T09:35:54;11.90;99.90
569;DHT22;269;48.884;9.192;2022-12-29T09:38:22;11.90;99.90
569;DHT22;269;48.884;9.192;2022-12-29T09:40:51;11.90;99.90
569;DHT22;269;48.884;9.192;2022-12-29T09:43:33;11.90;99.90
569;DHT22;269;48.884;9.192;2022-12-29T09:46:15;11.90;99.90
569;DHT22;269;48.884;9.192;2022-12-29T09:48:51;12.00;99.90
569;DHT22;269;48.884;9.192;2022-12-29T09:51:23;12.00;99.90
569;DHT22;269;48.884;9.192;2022-12-29T09:53:52;12.00;99.90
569;DHT22;269;48.884;9.192;2022-12-29T09:56:22;12.00;99.90
569;DHT22;269;48.884;9.192;2022-12-29T09:58:52;12.10;99.90
569;DHT22;269;48.884;9.192;2022-12-29T10:01:28;12.10;99.90
569;DHT22;269;48.884;9.192;2022-12-29T10:03:59;12.20;99.90
569;DHT22;269;48.884;9.192;2022-12-29T10:06:33;12.20;99.90
569;DHT22;269;48.884;9.192;2022-12-29T10:09:06;12.30;99.90
569;DHT22;269;48.884;9.192;2022-12-29T10:11:53;12.40;99.90
569;DHT22;269;48.884;9.192;2022-12-29T10:14:31;12.50;99.90
569;DHT22;269;48.884;9.192;2022-12-29T10:17:03;12.70;99.90
569;DHT22;269;48.884;9.192;2022-12-29T10:19:56;12.90;99.90
569;DHT22;269;48.884;9.192;2022-12-29T10:22:36;13.10;99.90
569;DHT22;269;48.884;9.192;2022-12-29T10:25:12;13.20;99.90
569;DHT22;269;48.884;9.192;2022-12-29T10:27:41;13.20;99.90
569;DHT22;269;48.884;9.192;2022-12-29T10:30:12;13.30;99.90
569;DHT22;269;48.884;9.192;2022-12-29T10:32:41;13.30;99.90
569;DHT22;269;48.884;9.192;2022-12-29T10:35:15;13.30;99.90
569;DHT22;269;48.884;9.192;2022-12-29T10:37:49;13.30;99.90
569;DHT22;269;48.884;9.192;2022-12-29T10:40:22;13.30;99.90
569;DHT22;269;48.884;9.192;2022-12-29T10:42:52;13.40;99.90
569;DHT22;269;48.884;9.192;2022-12-29T10:45:22;13.40;99.90
569;DHT22;269;48.884;9.192;2022-12-29T10:47:54;13.40;99.90
569;DHT22;269;48.884;9.192;2022-12-29T10:50:25;13.30;99.90
569;DHT22;269;48.884;9.192;2022-12-29T10:52:53;13.20;99.90
569;DHT22;269;48.884;9.192;2022-12-29T10:55:24;13.20;99.90
569;DHT22;269;48.884;9.192;2022-12-29T10:57:55;13.30;99.90
569;DHT22;269;48.884;9.192;2022-12-29T11:00:23;13.10;99.90
569;DHT22;269;48.884;9.192;2022-12-29T11:05:54;13.10;99.90
569;DHT22;269;48.884;9.192;2022-12-29T11:08:25;13.10;99.90
569;DHT22;269;48.884;9.192;2022-12-29T11:10:59;13.10;99.90
569;DHT22;269;48.884;9.192;2022-12-29T11:13:28;13.10;99.90
569;DHT22;269;48.884;9.192;2022-12-29T11:15:56;13.10;99.90
569;DHT22;269;48.884;9.192;2022-12-29T11:18:25;13.20;99.90
569;DHT22;269;48.884;9.192;2022-12-29T11:20:54;13.20;99.90
569;DHT22;269;48.884;9.192;2022-12-29T11:23:29;13.30;99.90
569;DHT22;269;48.884;9.192;2022-12-29T11:26:12;13.40;99.90
569;DHT22;269;48.884;9.192;2022-12-29T11:28:41;13.40;99.90
569;DHT22;269;48.884;9.192;2022-12-29T11:31:09;13.40;99.90
569;DHT22;269;48.884;9.192;2022-12-29T11:33:37;13.50;99.90
569;DHT22;269;48.884;9.192;2022-12-29T11:36:10;13.50;99.90
569;DHT22;269;48.884;9.192;2022-12-29T11:38:41;13.50;99.90
569;DHT22;269;48.884;9.192;2022-12-29T11:41:11;13.40;99.90
569;DHT22;269;48.884;9.192;2022-12-29T11:43:42;13.40;99.90
569;DHT22;269;48.884;9.192;2022-12-29T11:46:16;13.40;99.90
569;DHT22;269;48.884;9.192;2022-12-29T11:48:45;13.40;99.90
569;DHT22;269;48.884;9.192;2022-12-29T11:51:21;13.40;99.90
569;DHT22;269;48.884;9.192;2022-12-29T11:53:51;13.40;99.90
569;DHT22;269;48.884;9.192;2022-12-29T11:56:22;13.30;99.90
569;DHT22;269;48.884;9.192;2022-12-29T11:58:57;13.30;99.90
569;DHT22;269;48.884;9.192;2022-12-29T12:01:30;13.30;99.90
569;DHT22;269;48.884;9.192;2022-12-29T12:04:03;13.30;99.90
569;DHT22;269;48.884;9.192;2022-12-29T12:06:34;13.20;99.90
569;DHT22;269;48.884;9.192;2022-12-29T12:09:05;13.10;99.90
569;DHT22;269;48.884;9.192;2022-12-29T12:11:36;13.00;99.90
569;DHT22;269;48.884;9.192;2022-12-29T12:14:10;12.90;99.90
569;DHT22;269;48.884;9.192;2022-12-29T12:16:41;12.90;99.90
569;DHT22;269;48.884;9.192;2022-12-29T12:19:16;12.80;99.90
569;DHT22;269;48.884;9.192;2022-12-29T12:21:52;12.80;99.90
569;DHT22;269;48.884;9.192;2022-12-29T12:24:34;12.80;99.90
569;DHT22;269;48.884;9.192;2022-12-29T12:27:10;12.70;99.90
569;DHT22;269;48.884;9.192;2022-12-29T12:29:45;12.70;99.90
569;DHT22;269;48.884;9.192;2022-12-29T12:32:17;12.70;99.90
569;DHT22;269;48.884;9.192;2022-12-29T12:34:47;12.70;99.90
569;DHT22;269;48.884;9.192;2022-12-29T12:37:42;12.70;99.90
569;DHT22;269;48.884;9.192;2022-12-29T12:40:43;12.80;99.90
569;DHT22;269;48.884;9.192;2022-12-29T12:43:29;12.80;99.90
569;DHT22;269;48.884;9.192;2022-12-29T12:46:13;12.70;99.90
569;DHT22;269;48.884;9.192;2022-12-29T12:48:55;12.80;99.90
569;DHT22;269;48.884;9.192;2022-12-29T12:51:31;12.80;99.90
569;DHT22;269;48.884;9.192;2022-12-29T12:54:14;12.80;99.90
569;DHT22;269;48.884;9.192;2022-12-29T12:56:54;12.90;99.90
569;DHT22;269;48.884;9.192;2022-12-29T12:59:38;12.90;99.90
569;DHT22;269;48.884;9.192;2022-12-29T13:02:19;13.00;99.90
569;DHT22;269;48.884;9.192;2022-12-29T13:05:10;13.10;99.90
569;DHT22;269;48.884;9.192;2022-12-29T13:07:49;13.10;99.90
569;DHT22;269;48.884;9.192;2022-12-29T13:10:30;13.10;99.90
569;DHT22;269;48.884;9.192;2022-12-29T13:13:31;13.10;99.90
569;DHT22;269;48.884;9.192;2022-12-29T13:16:04;13.10;99.90
569;DHT22;269;48.884;9.192;2022-12-29T13:18:37;13.10;99.90
569;DHT22;269;48.884;9.192;2022-12-29T13:21:16;13.00;99.90
569;DHT22;269;48.884;9.192;2022-12-29T13:23:51;13.00;99.90
569;DHT22;269;48.884;9.192;2022-12-29T13:26:29;13.00;99.90
569;DHT22;269;48.884;9.192;2022-12-29T13:29:03;13.00;99.90
569;DHT22;269;48.884;9.192;2022-12-29T13:31:35;13.00;99.90
569;DHT22;269;48.884;9.192;2022-12-29T13:34:13;13.00;99.90
569;DHT22;269;48.884;9.192;2022-12-29T13:36:44;13.00;99.90
569;DHT22;269;48.884;9.192;2022-12-29T13:39:16;13.00;99.90
569;DHT22;269;48.884;9.192;2022-12-29T13:41:49;13.00;99.90
569;DHT22;269;48.884;9.192;2022-12-29T13:44:21;12.90;99.90
569;DHT22;269;48.884;9.192;2022-12-29T13:46:49;12.90;99.90
569;DHT22;269;48.884;9.192;2022-12-29T13:49:19;12.80;99.90
569;DHT22;269;48.884;9.192;2022-12-29T13:51:49;12.80;99.90
569;DHT22;269;48.884;9.192;2022-12-29T13:54:29;12.70;99.90
569;DHT22;269;48.884;9.192;2022-12-29T13:57:06;12.60;99.90
569;DHT22;269;48.884;9.192;2022-12-29T13:59:40;12.50;99.90
569;DHT22;269;48.884;9.192;2022-12-29T14:02:17;12.50;99.90
569;DHT22;269;48.884;9.192;2022-12-29T14:04:57;12.50;99.90
569;DHT22;269;48.884;9.192;2022-12-29T14:07:25;12.50;99.90
569;DHT22;269;48.884;9.192;2022-12-29T14:09:54;12.50;99.90
569;DHT22;269;48.884;9.192;2022-12-29T14:12:31;12.60;99.90
569;DHT22;269;48.884;9.192;2022-12-29T14:15:05;12.60;99.90
569;DHT22;269;48.884;9.192;2022-12-29T14:17:33;12.60;99.90
569;DHT22;269;48.884;9.192;2022-12-29T14:20:01;12.60;99.90
569;DHT22;269;48.884;9.192;2022-12-29T14:22:28;12.60;99.90
569;DHT22;269;48.884;9.192;2022-12-29T14:24:55;12.60;99.90
569;DHT22;269;48.884;9.192;2022-12-29T14:27:51;12.60;99.90
569;DHT22;269;48.884;9.192;2022-12-29T14:30:48;12.60;99.90
569;DHT22;269;48.884;9.192;2022-12-29T14:33:16;12.60;99.90
569;DHT22;269;48.884;9.192;2022-12-29T14:35:46;12.60;99.90
569;DHT22;269;48.884;9.192;2022-12-29T14:38:27;12.60;99.90
569;DHT22;269;48.884;9.192;2022-12-29T14:41:24;12.60;99.90
569;DHT22;269;48.884;9.192;2022-12-29T14:44:10;12.60;99.90
569;DHT22;269;48.884;9.192;2022-12-29T14:46:54;12.60;99.90
569;DHT22;269;48.884;9.192;2022-12-29T14:49:24;12.60;99.90
569;DHT22;269;48.884;9.192;2022-12-29T14:51:53;12.60;99.90
569;DHT22;269;48.884;9.192;2022-12-29T14:54:50;12.60;99.90
569;DHT22;269;48.884;9.192;2022-12-29T14:57:29;12.50;99.90
569;DHT22;269;48.884;9.192;2022-12-29T15:00:04;12.50;99.90
569;DHT22;269;48.884;9.192;2022-12-29T15:02:36;12.50;99.90
569;DHT22;269;48.884;9.192;2022-12-29T15:05:13;12.50;99.90
569;DHT22;269;48.884;9.192;2022-12-29T15:07:46;12.50;99.90
569;DHT22;269;48.884;9.192;2022-12-29T15:10:15;12.40;99.90
569;DHT22;269;48.884;9.192;2022-12-29T15:12:49;12.50;99.90
569;DHT22;269;48.884;9.192;2022-12-29T15:15:22;12.40;99.90
569;DHT22;269;48.884;9.192;2022-12-29T15:17:50;12.50;99.90
569;DHT22;269;48.884;9.192;2022-12-29T15:20:24;12.50;99.90
569;DHT22;269;48.884;9.192;2022-12-29T15:22:54;12.40;99.90
569;DHT22;269;48.884;9.192;2022-12-29T15:25:22;12.40;99.90
569;DHT22;269;48.884;9.192;2022-12-29T15:27:50;12.40;99.90
569;DHT22;269;48.884;9.192;2022-12-29T15:30:20;12.30;99.90
569;DHT22;269;48.884;9.192;2022-12-29T15:32:49;12.30;99.90
569;DHT22;269;48.884;9.192;2022-12-29T15:35:26;12.30;99.90
569;DHT22;269;48.884;9.192;2022-12-29T15:37:54;12.40;99.90
569;DHT22;269;48.884;9.192;2022-12-29T15:40:25;12.40;99.90
569;DHT22;269;48.884;9.192;2022-12-29T15:45:55;11.70;99.90
569;DHT22;269;48.884;9.192;2022-12-29T15:48:23;11.20;99.90
569;DHT22;269;48.884;9.192;2022-12-29T15:50:51;10.80;99.90
569;DHT22;269;48.884;9.192;2022-12-29T15:53:21;10.60;99.90
569;DHT22;269;48.884;9.192;2022-12-29T15:55:55;10.40;99.90
569;DHT22;269;48.884;9.192;2022-12-29T15:58:25;10.30;99.90
569;DHT22;269;48.884;9.192;2022-12-29T16:00:55;10.20;99.90
569;DHT22;269;48.884;9.192;2022-12-29T16:03:25;10.10;99.90
569;DHT22;269;48.884;9.192;2022-12-29T16:05:55;10.10;99.90
569;DHT22;269;48.884;9.192;2022-12-29T16:08:31;10.00;99.90
569;DHT22;269;48.884;9.192;2022-12-29T16:11:01;10.00;99.90
569;DHT22;269;48.884;9.192;2022-12-29T16:13:34;9.90;99.90
569;DHT22;269;48.884;9.192;2022-12-29T16:16:09;9.90;99.90
569;DHT22;269;48.884;9.192;2022-12-29T16:18:39;9.90;99.90
569;DHT22;269;48.884;9.192;2022-12-29T16:21:22;9.90;99.90
569;DHT22;269;48.884;9.192;2022-12-29T16:23:52;9.90;99.90
569;DHT22;269;48.884;9.192;2022-12-29T16:26:21;9.80;99.90
569;DHT22;269;48.884;9.192;2022-12-29T16:28:51;9.80;99.90
569;DHT22;269;48.884;9.192;2022-12-29T16:31:23;9.70;99.90
569;DHT22;269;48.884;9.192;2022-12-29T16:33:52;9.70;99.90
569;DHT22;269;48.884;9.192;2022-12-29T16:36:28;9.60;99.90
569;DHT22;269;48.884;9.192;2022-12-29T16:39:19;9.60;99.90
569;DHT22;269;48.884;9.192;2022-12-29T16:41:48;9.60;99.90
569;DHT22;269;48.884;9.192;2022-12-29T16:44:17;9.50;99.90
569;DHT22;269;48.884;9.192;2022-12-29T16:46:58;9.60;99.90
569;DHT22;269;48.884;9.192;2022-12-29T16:49:27;9.50;99.90
569;DHT22;269;48.884;9.192;2022-12-29T16:51:54;9.50;99.90
569;DHT22;269;48.884;9.192;2022-12-29T16:54:24;9.50;99.90
569;DHT22;269;48.884;9.192;2022-12-29T16:56:52;9.50;99.90
569;DHT22;269;48.884;9.192;2022-12-29T16:59:30;9.50;99.90
569;DHT22;269;48.884;9.192;2022-12-29T17:02:06;9.50;99.90
569;DHT22;269;48.884;9.192;2022-12-29T17:04:33;9.40;99.90
569;DHT22;269;48.884;9.192;2022-12-29T17:07:00;9.40;99.90
569;DHT22;269;48.884;9.192;2022-12-29T17:09:28;9.40;99.90
569;DHT22;269;48.884;9.192;2022-12-29T17:11:58;9.40;99.90
569;DHT22;269;48.884;9.192;2022-12-29T17:14:38;9.40;99.90
569;DHT22;269;48.884;9.192;2022-12-29T17:17:14;9.40;99.90
569;DHT22;269;48.884;9.192;2022-12-29T17:19:45;9.40;99.90